Jaipur, India
Current Conditions -  °F | °C
As of 9:30 AM on Monday 20 Oct 2014 (Local Time) from VIJP Reporting Station
Smoke Smoke  
Wind Chill: 84°   Ceiling: Unl
Heat Index: 84°   Visibility: 1.2mi
Dew Point: 52°   Wind: 3mph
Humidity: 33%   Direction: NA
Pressure: 30.06"   Gusts: NA
Location:  26.91°N, 75.8°E
Report Text: VIJP 200430Z VRB03KT 2000 FU NSC 29/11 Q1018 NOSIG
Loading
Personal Weather Stations






























Interactive Weather Map
Tropical Storm Tracking
New forecast layout! Learn more

10-Day Weather Forecast

Advertisements
Track Severe Weather on mobile